Emerald Leader — C6WP4 — position and weather

sailwx.info

Track history (hours):
 
Tides and Currents Weather Stations Pressure Air Temp Water Temp Dewpoint Dewpoint Depression Visibility Wind Speed Wind Dir Waves Ship Positions

Emerald Leader

Last reported at 2014-Dec-20 18:33 UTC. Time now 2014-Dec-20 19:24 UTC.
Position N 51°28' E 002°42'.

Length 176 m; draft 8.1 m.

Type: Cargo ship. MMSI: 308688000.

Date/timePositionNaut miles runAvg speedWind from/ knotsBaromVisibWave heightAir tempDewpointWater temp
2014-Dec-20 18:33N 51°28' E 002°42'31 4.8
2014-Dec-20 12:09N 51°55' E 002°19'2 3.9
2014-Dec-20 11:33N 51°54' E 002°17'4 3.6
2014-Dec-20 10:30N 51°50' E 002°14'2 2.6
2014-Dec-20 09:33N 51°48' E 002°11'2 1.6
2014-Dec-20 08:34N 51°47' E 002°10'1 1.4
2014-Dec-20 07:34N 51°48' E 002°12'4 4.5
2014-Dec-20 06:33N 51°44' E 002°14'2 2.4
2014-Dec-20 05:33N 51°45' E 002°11'3 2.5
2014-Dec-20 04:27N 51°48' E 002°08'2 1.8
2014-Dec-20 03:33N 51°47' E 002°11'3 2.4
2014-Dec-20 02:26N 51°50' E 002°09'5 5.2
2014-Dec-20 01:33N 51°53' E 002°14'6 4.8
2014-Dec-20 00:15N 51°59' E 002°19'2 2.7
2014-Dec-19 23:33N 51°57' E 002°17'3 3.5
2014-Dec-19 22:33N 51°54' E 002°15'3 2.8
2014-Dec-19 21:33N 51°52' E 002°12'2 1.8
2014-Dec-19 20:30N 51°50' E 002°11'1 0.8
2014-Dec-19 19:33N 51°50' E 002°10'1 0.5
2014-Dec-19 18:33N 51°49' E 002°09'1 0.7
2014-Dec-19 17:29N 51°49' E 002°09'1 1.0
2014-Dec-19 16:31N 51°48' E 002°08'1 1.4
2014-Dec-19 15:31N 51°46' E 002°07'5 5.6
2014-Dec-19 14:32N 51°43' E 002°14'2 2.3
2014-Dec-19 13:33N 51°42' E 002°10'3 2.9
2014-Dec-19 12:33N 51°41' E 002°06'3 2.6
2014-Dec-19 11:34N 51°40' E 002°03'1 0.9
2014-Dec-19 10:33N 51°39' E 002°01'6 5.6
2014-Dec-19 09:34N 51°34' E 001°57'8 7.6
2014-Dec-19 08:34N 51°27' E 002°02'10 9.6
2014-Dec-19 07:33N 51°35' E 002°12'10 9.7
2014-Dec-19 06:32N 51°42' E 002°23'14 1.4
2014-Dec-18 20:33N 51°44' E 002°45'9 9.2
2014-Dec-18 19:33N 51°35' E 002°43'8 7.9
2014-Dec-18 18:34N 51°27' E 002°39'1 0.7
2014-Dec-18 17:31N 51°27' E 002°38'0 0.2
2014-Dec-18 16:31N 51°27' E 002°38'7 6.7
2014-Dec-18 15:33N 51°33' E 002°42'1414.3
2014-Dec-18 14:33N 51°47' E 002°46'1512.8
2014-Dec-18 13:24N 52°02' E 002°49'5713.9
2014-Dec-18 09:16N 52°48' E 003°44'1215.4
2014-Dec-18 08:30N 52°57' E 003°57'1515.7
2014-Dec-18 07:33N 53°06' E 004°17'1615.7
2014-Dec-18 06:33N 53°19' E 004°31'1414.3
2014-Dec-18 05:33N 53°30' E 004°46'1514.6
2014-Dec-18 04:33N 53°35' E 005°09'1414.1
2014-Dec-18 03:33N 53°40' E 005°31'1414.0
2014-Dec-18 02:33N 53°45' E 005°53'6115.1
2014-Dec-17 22:33N 53°59' E 007°33'1413.6
2014-Dec-17 21:34N 53°52' E 007°53'1615.8
2014-Dec-17 20:33N 53°44' E 008°15'1413.8
2014-Dec-17 19:33N 53°34' E 008°32'0 0.5
2014-Dec-17 18:33N 53°34' E 008°33'1 0.7
2014-Dec-17 17:33N 53°34' E 008°34'0 0.0
2014-Dec-17 16:33N 53°34' E 008°34'0 0.0
2014-Dec-17 15:33N 53°34' E 008°34'0 0.0
2014-Dec-17 14:33N 53°34' E 008°34'0 0.0
2014-Dec-17 13:33N 53°34' E 008°34'0 0.0
2014-Dec-17 12:33N 53°34' E 008°34'0 0.0
2014-Dec-17 11:33N 53°34' E 008°34'0 0.0
2014-Dec-17 10:33N 53°34' E 008°34'0 0.0
2014-Dec-17 09:33N 53°34' E 008°34'0 0.0
2014-Dec-17 08:33N 53°34' E 008°34'0 0.0
2014-Dec-17 07:33N 53°34' E 008°34'0 0.0
2014-Dec-17 06:33N 53°34' E 008°34'0 0.0
2014-Dec-17 05:33N 53°34' E 008°34'0 0.0
2014-Dec-17 04:33N 53°34' E 008°34'0 0.0
2014-Dec-17 03:33N 53°34' E 008°34'0 0.0
2014-Dec-17 02:33N 53°34' E 008°34'0 0.0
2014-Dec-17 01:33N 53°34' E 008°34'0 0.0
2014-Dec-17 00:33N 53°34' E 008°34'0 0.0
2014-Dec-16 23:33N 53°34' E 008°34'0 0.0
2014-Dec-16 22:27N 53°34' E 008°34'0 0.0
2014-Dec-16 21:33N 53°34' E 008°34'1 0.7
2014-Dec-16 20:33N 53°34' E 008°33'8 7.9
2014-Dec-16 19:34N 53°40' E 008°23'1615.6
2014-Dec-16 18:33N 53°50' E 008°04'1515.2
2014-Dec-16 17:33N 53°54' E 007°39'8 8.2
2014-Dec-16 16:33N 53°54' E 007°25'4413.7
2014-Dec-16 13:21N 53°43' E 006°13'1215.2
2014-Dec-16 12:34N 53°40' E 005°53'1515.3
2014-Dec-16 11:33N 53°34' E 005°29'1515.3
2014-Dec-16 10:33N 53°29' E 005°05'1514.6
2014-Dec-16 09:33N 53°23' E 004°43'1514.2
2014-Dec-16 08:28N 53°09' E 004°30'1314.3
2014-Dec-16 07:33N 52°58' E 004°19'1414.1
2014-Dec-16 06:33N 52°46' E 004°08'1414.2
2014-Dec-16 05:33N 52°35' E 003°53'7314.4
2014-Dec-16 00:31N 51°43' E 002°31'1614.6
2014-Dec-15 23:27N 51°31' E 002°15'1314.6
2014-Dec-15 22:33N 51°18' E 002°08'1514.7
2014-Dec-15 21:34N 51°09' E 001°50'1615.8
2014-Dec-15 20:34N 50°57' E 001°33'  
2014-Dec-12 04:33N 39°10' W 009°52'1413.7
2014-Dec-12 03:31N 38°56' W 009°53'1313.6
2014-Dec-12 02:33N 38°43' W 009°53'1413.6
2014-Dec-12 01:33N 38°30' W 009°49'1313.4
2014-Dec-12 00:33N 38°17' W 009°45'1313.4
2014-Dec-11 23:33N 38°04' W 009°41'1413.7
2014-Dec-11 22:33N 37°51' W 009°37'1413.7
2014-Dec-11 21:33N 37°37' W 009°33'1913.7
2014-Dec-11 20:11N 37°19' W 009°27'1414.0
2014-Dec-11 19:10N 37°05' W 009°23'1513.9
2014-Dec-11 18:05N 36°51' W 009°16'2314.1
2014-Dec-11 16:28N 36°41' W 008°51'1515.0
2014-Dec-11 15:28N 36°37' W 008°33'3015.7
2014-Dec-11 13:33N 36°27' W 007°58'12215.1
2014-Dec-11 05:26N 35°59' W 005°30'1415.5
2014-Dec-11 04:33N 36°03' W 005°14'  
Track history (hours):
 
Tides and Currents Weather Stations Pressure Air Temp Water Temp Dewpoint Dewpoint Depression Visibility Wind Speed Wind Dir Waves Ship Positions

Emerald Leader

Last reported at 2014-Dec-20 18:33 UTC. Time now 2014-Dec-20 19:24 UTC.
Position N 51°28' E 002°42'.

Length 176 m; draft 8.1 m.

Type: Cargo ship. MMSI: 308688000.

Date/timePositionNaut miles runAvg speedWind from/ knotsBaromVisibWave heightAir tempDewpointWater temp
2014-Dec-20 18:33N 51°28' E 002°42'31 4.8
2014-Dec-20 12:09N 51°55' E 002°19'2 3.9
2014-Dec-20 11:33N 51°54' E 002°17'4 3.6
2014-Dec-20 10:30N 51°50' E 002°14'2 2.6
2014-Dec-20 09:33N 51°48' E 002°11'2 1.6
2014-Dec-20 08:34N 51°47' E 002°10'1 1.4
2014-Dec-20 07:34N 51°48' E 002°12'4 4.5
2014-Dec-20 06:33N 51°44' E 002°14'2 2.4
2014-Dec-20 05:33N 51°45' E 002°11'3 2.5
2014-Dec-20 04:27N 51°48' E 002°08'2 1.8
2014-Dec-20 03:33N 51°47' E 002°11'3 2.4
2014-Dec-20 02:26N 51°50' E 002°09'5 5.2
2014-Dec-20 01:33N 51°53' E 002°14'6 4.8
2014-Dec-20 00:15N 51°59' E 002°19'2 2.7
2014-Dec-19 23:33N 51°57' E 002°17'3 3.5
2014-Dec-19 22:33N 51°54' E 002°15'3 2.8
2014-Dec-19 21:33N 51°52' E 002°12'2 1.8
2014-Dec-19 20:30N 51°50' E 002°11'1 0.8
2014-Dec-19 19:33N 51°50' E 002°10'1 0.5
2014-Dec-19 18:33N 51°49' E 002°09'1 0.7
2014-Dec-19 17:29N 51°49' E 002°09'1 1.0
2014-Dec-19 16:31N 51°48' E 002°08'1 1.4
2014-Dec-19 15:31N 51°46' E 002°07'5 5.6
2014-Dec-19 14:32N 51°43' E 002°14'2 2.3
2014-Dec-19 13:33N 51°42' E 002°10'3 2.9
2014-Dec-19 12:33N 51°41' E 002°06'3 2.6
2014-Dec-19 11:34N 51°40' E 002°03'1 0.9
2014-Dec-19 10:33N 51°39' E 002°01'6 5.6
2014-Dec-19 09:34N 51°34' E 001°57'8 7.6
2014-Dec-19 08:34N 51°27' E 002°02'10 9.6
2014-Dec-19 07:33N 51°35' E 002°12'10 9.7
2014-Dec-19 06:32N 51°42' E 002°23'14 1.4
2014-Dec-18 20:33N 51°44' E 002°45'9 9.2
2014-Dec-18 19:33N 51°35' E 002°43'8 7.9
2014-Dec-18 18:34N 51°27' E 002°39'1 0.7
2014-Dec-18 17:31N 51°27' E 002°38'0 0.2
2014-Dec-18 16:31N 51°27' E 002°38'7 6.7
2014-Dec-18 15:33N 51°33' E 002°42'1414.3
2014-Dec-18 14:33N 51°47' E 002°46'1512.8
2014-Dec-18 13:24N 52°02' E 002°49'5713.9
2014-Dec-18 09:16N 52°48' E 003°44'1215.4
2014-Dec-18 08:30N 52°57' E 003°57'1515.7
2014-Dec-18 07:33N 53°06' E 004°17'1615.7
2014-Dec-18 06:33N 53°19' E 004°31'1414.3
2014-Dec-18 05:33N 53°30' E 004°46'1514.6
2014-Dec-18 04:33N 53°35' E 005°09'1414.1
2014-Dec-18 03:33N 53°40' E 005°31'1414.0
2014-Dec-18 02:33N 53°45' E 005°53'6115.1
2014-Dec-17 22:33N 53°59' E 007°33'1413.6
2014-Dec-17 21:34N 53°52' E 007°53'1615.8
2014-Dec-17 20:33N 53°44' E 008°15'1413.8
2014-Dec-17 19:33N 53°34' E 008°32'0 0.5
2014-Dec-17 18:33N 53°34' E 008°33'1 0.7
2014-Dec-17 17:33N 53°34' E 008°34'0 0.0
2014-Dec-17 16:33N 53°34' E 008°34'0 0.0
2014-Dec-17 15:33N 53°34' E 008°34'0 0.0
2014-Dec-17 14:33N 53°34' E 008°34'0 0.0
2014-Dec-17 13:33N 53°34' E 008°34'0 0.0
2014-Dec-17 12:33N 53°34' E 008°34'0 0.0
2014-Dec-17 11:33N 53°34' E 008°34'0 0.0
2014-Dec-17 10:33N 53°34' E 008°34'0 0.0
2014-Dec-17 09:33N 53°34' E 008°34'0 0.0
2014-Dec-17 08:33N 53°34' E 008°34'0 0.0
2014-Dec-17 07:33N 53°34' E 008°34'0 0.0
2014-Dec-17 06:33N 53°34' E 008°34'0 0.0
2014-Dec-17 05:33N 53°34' E 008°34'0 0.0
2014-Dec-17 04:33N 53°34' E 008°34'0 0.0
2014-Dec-17 03:33N 53°34' E 008°34'0 0.0
2014-Dec-17 02:33N 53°34' E 008°34'0 0.0
2014-Dec-17 01:33N 53°34' E 008°34'0 0.0
2014-Dec-17 00:33N 53°34' E 008°34'0 0.0
2014-Dec-16 23:33N 53°34' E 008°34'0 0.0
2014-Dec-16 22:27N 53°34' E 008°34'0 0.0
2014-Dec-16 21:33N 53°34' E 008°34'1 0.7
2014-Dec-16 20:33N 53°34' E 008°33'8 7.9
2014-Dec-16 19:34N 53°40' E 008°23'1615.6
2014-Dec-16 18:33N 53°50' E 008°04'1515.2
2014-Dec-16 17:33N 53°54' E 007°39'8 8.2
2014-Dec-16 16:33N 53°54' E 007°25'4413.7
2014-Dec-16 13:21N 53°43' E 006°13'1215.2
2014-Dec-16 12:34N 53°40' E 005°53'1515.3
2014-Dec-16 11:33N 53°34' E 005°29'1515.3
2014-Dec-16 10:33N 53°29' E 005°05'1514.6
2014-Dec-16 09:33N 53°23' E 004°43'1514.2
2014-Dec-16 08:28N 53°09' E 004°30'1314.3
2014-Dec-16 07:33N 52°58' E 004°19'1414.1
2014-Dec-16 06:33N 52°46' E 004°08'1414.2
2014-Dec-16 05:33N 52°35' E 003°53'7314.4
2014-Dec-16 00:31N 51°43' E 002°31'1614.6
2014-Dec-15 23:27N 51°31' E 002°15'1314.6
2014-Dec-15 22:33N 51°18' E 002°08'1514.7
2014-Dec-15 21:34N 51°09' E 001°50'1615.8
2014-Dec-15 20:34N 50°57' E 001°33'  
2014-Dec-12 04:33N 39°10' W 009°52'1413.7
2014-Dec-12 03:31N 38°56' W 009°53'1313.6
2014-Dec-12 02:33N 38°43' W 009°53'1413.6
2014-Dec-12 01:33N 38°30' W 009°49'1313.4
2014-Dec-12 00:33N 38°17' W 009°45'1313.4
2014-Dec-11 23:33N 38°04' W 009°41'1413.7
2014-Dec-11 22:33N 37°51' W 009°37'1413.7
2014-Dec-11 21:33N 37°37' W 009°33'1913.7
2014-Dec-11 20:11N 37°19' W 009°27'1414.0
2014-Dec-11 19:10N 37°05' W 009°23'1513.9
2014-Dec-11 18:05N 36°51' W 009°16'2314.1
2014-Dec-11 16:28N 36°41' W 008°51'1515.0
2014-Dec-11 15:28N 36°37' W 008°33'3015.7
2014-Dec-11 13:33N 36°27' W 007°58'12215.1
2014-Dec-11 05:26N 35°59' W 005°30'1415.5
2014-Dec-11 04:33N 36°03' W 005°14'  

Dump ship's entire track history